Time;durP1;ratioP1;P1;durP2;ratioP2;P2;SDS_P1;SDS_P2;PMS_P1;PMS_P2;Temp;Humidity;BMP_temperature;BMP_pressure;BME280_temperature;BME280_humidity;BME280_pressure;Samples;Min_cycle;Max_cycle;Signal;HPM_P1;HPM_P2
2022/03/04 00:00:19;;;;;;;20.43;13.03;;;8.20;37.40;;;;;;5043914;28;20223;-46
2022/03/04 00:02:45;;;;;;;17.17;12.77;;;8.10;37.40;;;;;;5047439;28;20576;-45
2022/03/04 00:05:10;;;;;;;17.37;12.90;;;8.10;37.50;;;;;;5042847;28;20443;-46
2022/03/04 00:07:36;;;;;;;16.30;12.50;;;8.10;37.60;;;;;;5042130;28;20450;-50
2022/03/04 00:10:03;;;;;;;17.60;12.60;;;8.00;37.60;;;;;;5045644;28;20211;-46
2022/03/04 00:12:29;;;;;;;14.63;12.97;;;8.00;37.70;;;;;;5045455;28;20197;-46
2022/03/04 00:14:54;;;;;;;16.50;12.50;;;7.90;37.60;;;;;;5041597;28;20454;-49
2022/03/04 00:17:20;;;;;;;17.47;12.50;;;8.00;37.80;;;;;;5039738;28;20258;-51
2022/03/04 00:19:46;;;;;;;16.33;12.13;;;7.90;37.90;;;;;;5045446;28;20201;-50
2022/03/04 00:22:13;;;;;;;17.40;13.47;;;8.00;38.10;;;;;;5049016;28;20224;-46
2022/03/04 00:24:39;;;;;;;19.60;13.40;;;8.00;38.20;;;;;;5042527;28;20567;-46
2022/03/04 00:27:04;;;;;;;16.37;13.23;;;7.90;38.20;;;;;;5043082;28;20439;-45
2022/03/04 00:29:30;;;;;;;14.63;11.00;;;7.90;38.20;;;;;;5045243;28;20208;-46
2022/03/04 00:31:55;;;;;;;16.93;12.40;;;7.90;38.00;;;;;;5043912;28;20197;-51
2022/03/04 00:34:21;;;;;;;18.40;12.10;;;7.80;38.10;;;;;;5040359;28;20193;-51
2022/03/04 00:36:49;;;;;;;16.43;12.57;;;7.80;38.30;;;;;;5040248;28;20193;-49
2022/03/04 00:39:15;;;;;;;16.83;13.00;;;7.70;38.30;;;;;;5042964;28;20196;-50
2022/03/04 00:41:41;;;;;;;17.90;12.03;;;7.70;38.20;;;;;;5039877;28;20889;-45
2022/03/04 00:44:07;;;;;;;17.50;11.70;;;7.70;38.20;;;;;;5042628;28;20487;-44
2022/03/04 00:46:33;;;;;;;15.00;12.00;;;7.70;38.10;;;;;;5038131;28;20436;-48
2022/03/04 00:48:59;;;;;;;16.70;11.70;;;7.70;38.20;;;;;;5047035;28;20200;-45
2022/03/04 00:51:24;;;;;;;17.23;11.97;;;7.70;38.20;;;;;;5044509;28;21032;-45
2022/03/04 00:53:50;;;;;;;15.87;11.77;;;7.70;38.20;;;;;;5037298;28;20189;-46
2022/03/04 00:56:15;;;;;;;17.07;12.50;;;7.60;38.20;;;;;;5040513;28;20203;-45
2022/03/04 00:58:41;;;;;;;17.83;11.67;;;7.60;38.40;;;;;;5044645;28;20287;-48
2022/03/04 01:01:07;;;;;;;14.10;11.40;;;7.60;38.60;;;;;;5047253;28;20222;-50
2022/03/04 01:03:33;;;;;;;16.30;11.47;;;7.60;38.60;;;;;;5041556;28;20234;-46
2022/03/04 01:06:00;;;;;;;19.60;13.30;;;7.50;38.60;;;;;;5039312;28;20475;-45
2022/03/04 01:08:26;;;;;;;15.60;12.40;;;7.50;38.80;;;;;;5045318;28;20200;-48
2022/03/04 01:10:52;;;;;;;19.57;12.63;;;7.40;39.00;;;;;;5041912;28;20504;-47
2022/03/04 01:13:18;;;;;;;17.07;12.33;;;7.40;39.30;;;;;;5041315;28;20196;-46
2022/03/04 01:15:44;;;;;;;19.30;12.03;;;7.40;39.50;;;;;;5039247;28;20549;-46
2022/03/04 01:18:10;;;;;;;17.60;12.17;;;7.30;39.40;;;;;;5042874;28;20226;-45
2022/03/04 01:20:36;;;;;;;16.00;12.07;;;7.30;39.40;;;;;;5043997;28;20443;-50
2022/03/04 01:23:02;;;;;;;18.43;13.13;;;7.30;39.50;;;;;;5040077;28;20455;-50
2022/03/04 01:25:28;;;;;;;16.20;11.70;;;7.20;39.60;;;;;;5046178;28;22106;-47
2022/03/04 01:27:54;;;;;;;16.00;11.93;;;7.20;39.80;;;;;;5044426;28;20215;-48
2022/03/04 01:30:20;;;;;;;21.83;12.80;;;7.30;39.70;;;;;;5044248;28;20446;-47
2022/03/04 01:32:46;;;;;;;14.43;11.77;;;7.20;39.50;;;;;;5041536;28;20261;-51
2022/03/04 01:35:12;;;;;;;17.63;11.67;;;7.20;40.30;;;;;;5041423;28;20676;-48
2022/03/04 01:37:39;;;;;;;18.37;11.63;;;7.10;39.70;;;;;;5042545;28;20443;-49
2022/03/04 01:40:07;;;;;;;19.23;11.90;;;7.10;39.90;;;;;;5046691;28;20489;-48
2022/03/04 01:42:33;;;;;;;16.67;12.93;;;7.10;39.70;;;;;;5044778;28;20510;-47
2022/03/04 01:44:59;;;;;;;16.13;12.50;;;7.10;39.90;;;;;;5039623;28;20439;-47
2022/03/04 01:47:24;;;;;;;17.57;11.60;;;7.10;40.00;;;;;;5039014;28;20451;-45
2022/03/04 01:49:50;;;;;;;18.60;13.03;;;7.10;39.90;;;;;;5043013;28;20196;-45
2022/03/04 01:52:16;;;;;;;18.70;11.40;;;7.10;40.10;;;;;;5037292;28;20644;-49
2022/03/04 01:54:42;;;;;;;16.30;11.90;;;7.10;40.10;;;;;;5047289;28;20250;-50
2022/03/04 01:57:08;;;;;;;17.00;11.63;;;7.10;40.20;;;;;;5045622;28;20451;-44
2022/03/04 01:59:34;;;;;;;26.30;13.13;;;7.10;40.30;;;;;;5046120;28;20185;-49
2022/03/04 02:01:59;;;;;;;15.10;10.70;;;7.10;40.30;;;;;;5038339;28;20688;-48
2022/03/04 02:04:25;;;;;;;15.50;12.37;;;7.10;40.50;;;;;;5046704;28;20582;-51
2022/03/04 02:06:51;;;;;;;18.50;12.77;;;7.00;40.40;;;;;;5041075;28;20189;-45
2022/03/04 02:09:18;;;;;;;17.63;12.80;;;7.00;40.40;;;;;;5039446;28;20836;-47
2022/03/04 02:11:44;;;;;;;15.83;12.90;;;7.00;40.50;;;;;;5046312;28;20814;-50
2022/03/04 02:14:11;;;;;;;19.90;12.50;;;7.00;40.70;;;;;;5048211;28;20496;-46
2022/03/04 02:16:42;;;;;;;20.30;12.40;;;6.90;40.70;;;;;;5045992;28;20470;-51
2022/03/04 02:19:08;;;;;;;16.70;11.77;;;6.90;40.90;;;;;;5044231;28;20633;-48
2022/03/04 02:21:34;;;;;;;20.37;13.57;;;6.80;41.00;;;;;;5045470;28;22254;-48
2022/03/04 02:24:00;;;;;;;18.20;12.73;;;6.70;41.20;;;;;;5046486;28;20280;-50
2022/03/04 02:26:26;;;;;;;18.03;12.37;;;6.70;41.40;;;;;;5047102;28;20801;-45
2022/03/04 02:28:52;;;;;;;14.20;10.90;;;6.60;41.50;;;;;;5043317;28;20455;-48
2022/03/04 02:31:21;;;;;;;17.40;11.70;;;6.60;41.80;;;;;;5047364;28;20202;-51
2022/03/04 02:33:48;;;;;;;18.63;12.17;;;6.50;41.90;;;;;;5042275;28;20192;-46
2022/03/04 02:36:14;;;;;;;15.43;11.27;;;6.40;41.90;;;;;;5044702;28;20439;-45
2022/03/04 02:38:40;;;;;;;17.30;12.47;;;6.40;42.10;;;;;;5048327;28;20874;-45
2022/03/04 02:41:05;;;;;;;16.80;12.67;;;6.40;42.10;;;;;;5039511;28;20204;-46
2022/03/04 02:43:32;;;;;;;16.73;11.83;;;6.40;42.00;;;;;;5048046;28;20286;-49
2022/03/04 02:45:57;;;;;;;18.77;12.90;;;6.40;41.80;;;;;;5047293;28;20193;-50
2022/03/04 02:48:23;;;;;;;19.47;12.00;;;6.40;41.80;;;;;;5050043;28;20454;-47
2022/03/04 02:50:49;;;;;;;24.60;13.07;;;6.40;41.80;;;;;;5043630;28;20197;-50
2022/03/04 02:53:14;;;;;;;18.20;12.70;;;6.30;41.70;;;;;;5042376;28;20250;-51
2022/03/04 02:55:40;;;;;;;18.90;13.90;;;6.40;41.90;;;;;;5041196;28;20346;-46
2022/03/04 02:58:06;;;;;;;17.17;11.30;;;6.30;41.90;;;;;;5049549;28;20212;-45
2022/03/04 03:00:34;;;;;;;14.53;11.03;;;6.20;42.00;;;;;;5049110;28;20193;-48
2022/03/04 03:02:59;;;;;;;20.67;11.67;;;6.20;42.00;;;;;;5049742;28;20418;-47
2022/03/04 03:05:25;;;;;;;16.87;12.00;;;6.20;42.00;;;;;;5041572;28;21014;-45
2022/03/04 03:07:51;;;;;;;21.50;11.90;;;6.20;41.90;;;;;;5047656;28;20199;-49
2022/03/04 03:10:16;;;;;;;17.50;11.57;;;6.20;41.90;;;;;;5046248;28;20189;-51
2022/03/04 03:12:42;;;;;;;18.80;11.63;;;6.20;42.00;;;;;;5048756;28;20195;-44
2022/03/04 03:15:09;;;;;;;18.60;12.20;;;6.20;41.90;;;;;;5041079;28;20227;-47
2022/03/04 03:17:35;;;;;;;15.20;11.30;;;6.10;41.90;;;;;;5046712;28;20435;-48
2022/03/04 03:20:02;;;;;;;15.20;11.53;;;6.10;42.00;;;;;;5047690;28;20431;-44
2022/03/04 03:22:28;;;;;;;16.97;12.07;;;6.10;42.00;;;;;;5044794;28;20518;-48
2022/03/04 03:24:54;;;;;;;17.93;11.33;;;6.10;41.90;;;;;;5048477;28;20475;-46
2022/03/04 03:27:19;;;;;;;15.77;11.30;;;6.10;41.90;;;;;;5049652;28;20200;-45
2022/03/04 03:29:45;;;;;;;17.07;11.73;;;6.10;41.90;;;;;;5046287;28;20200;-45
2022/03/04 03:32:11;;;;;;;16.87;11.83;;;6.10;42.00;;;;;;5043987;28;20275;-45
2022/03/04 03:34:38;;;;;;;16.67;11.30;;;6.10;42.00;;;;;;5050526;28;20195;-45
2022/03/04 03:37:05;;;;;;;16.47;12.40;;;6.10;42.10;;;;;;5050158;28;20431;-47
2022/03/04 03:39:30;;;;;;;13.40;10.63;;;6.10;42.00;;;;;;5041771;28;20444;-45
2022/03/04 03:41:56;;;;;;;18.23;13.07;;;6.10;41.90;;;;;;5047978;28;20540;-44
2022/03/04 03:44:22;;;;;;;16.50;11.73;;;6.10;42.00;;;;;;5049449;28;20720;-44
2022/03/04 03:46:47;;;;;;;17.27;11.97;;;6.10;42.00;;;;;;5049155;28;20189;-50
2022/03/04 03:49:13;;;;;;;14.10;10.27;;;6.00;42.20;;;;;;5040251;28;20189;-45
2022/03/04 03:51:39;;;;;;;17.57;12.37;;;6.00;42.30;;;;;;5050149;28;20192;-44
2022/03/04 03:54:04;;;;;;;19.67;11.70;;;6.00;42.40;;;;;;5035006;28;20205;-45
2022/03/04 03:56:30;;;;;;;18.20;11.60;;;6.00;42.30;;;;;;5036692;28;20283;-45
2022/03/04 03:58:56;;;;;;;14.47;11.10;;;6.00;42.30;;;;;;5040704;28;20656;-46
2022/03/04 04:01:21;;;;;;;15.30;11.77;;;6.00;42.20;;;;;;5044352;28;20680;-46
2022/03/04 04:03:48;;;;;;;17.70;11.50;;;6.00;42.30;;;;;;5045487;28;20223;-46
2022/03/04 04:06:14;;;;;;;16.50;11.33;;;5.90;42.50;;;;;;5044492;28;20249;-45
2022/03/04 04:08:40;;;;;;;16.50;12.17;;;5.90;42.80;;;;;;5030961;28;20539;-46
2022/03/04 04:11:06;;;;;;;19.33;12.33;;;5.90;42.90;;;;;;5046322;28;20881;-46
2022/03/04 04:13:32;;;;;;;19.90;12.13;;;5.90;43.00;;;;;;5038939;28;20436;-46
2022/03/04 04:15:57;;;;;;;16.00;10.97;;;5.90;42.70;;;;;;5049840;28;20203;-48
2022/03/04 04:18:23;;;;;;;16.80;11.63;;;5.90;42.70;;;;;;5041206;28;20193;-45
2022/03/04 04:20:48;;;;;;;15.23;11.37;;;5.80;42.60;;;;;;5048941;28;20207;-45
2022/03/04 04:23:14;;;;;;;18.60;12.53;;;5.80;42.80;;;;;;5046547;28;20192;-46
2022/03/04 04:25:40;;;;;;;14.70;11.20;;;5.80;43.00;;;;;;5044677;28;20687;-44
2022/03/04 04:28:05;;;;;;;17.13;12.53;;;5.80;43.10;;;;;;5042293;28;20229;-45
2022/03/04 04:30:31;;;;;;;16.60;12.47;;;5.80;43.10;;;;;;5038003;28;20192;-44
2022/03/04 04:32:57;;;;;;;17.10;11.47;;;5.70;43.10;;;;;;5040938;28;20199;-47
2022/03/04 04:35:23;;;;;;;18.80;11.27;;;5.70;43.10;;;;;;5036784;28;20204;-45
2022/03/04 04:37:49;;;;;;;16.93;12.10;;;5.70;43.00;;;;;;5036227;28;20197;-44
2022/03/04 04:40:15;;;;;;;17.30;12.70;;;5.60;43.10;;;;;;5038145;28;20197;-47
2022/03/04 04:42:41;;;;;;;14.30;10.70;;;5.50;43.30;;;;;;5044159;28;20513;-47
2022/03/04 04:45:08;;;;;;;19.67;12.60;;;5.50;43.50;;;;;;5045217;28;21308;-49
2022/03/04 04:47:34;;;;;;;19.23;12.00;;;5.40;43.50;;;;;;5038224;28;20197;-45
2022/03/04 04:49:59;;;;;;;16.53;11.30;;;5.40;43.50;;;;;;5037608;28;20802;-46
2022/03/04 04:52:25;;;;;;;15.80;11.13;;;5.30;43.70;;;;;;5040982;28;20435;-47
2022/03/04 04:54:51;;;;;;;14.87;11.57;;;5.30;43.60;;;;;;5042024;28;20250;-45
2022/03/04 04:57:16;;;;;;;20.23;11.87;;;5.30;43.40;;;;;;5040671;28;20202;-45
2022/03/04 04:59:42;;;;;;;16.47;11.90;;;5.30;43.40;;;;;;5042664;28;20274;-45
2022/03/04 05:02:08;;;;;;;18.73;12.47;;;5.30;43.40;;;;;;5048337;28;20228;-46
2022/03/04 05:04:33;;;;;;;21.67;14.00;;;5.30;43.50;;;;;;5044865;28;20568;-44
2022/03/04 05:06:59;;;;;;;19.87;14.63;;;5.30;43.50;;;;;;5042740;28;20195;-46
2022/03/04 05:09:24;;;;;;;23.43;16.60;;;5.30;43.60;;;;;;5044756;28;20302;-47
2022/03/04 05:11:50;;;;;;;19.27;13.40;;;5.30;43.60;;;;;;5047936;28;20193;-49
2022/03/04 05:14:16;;;;;;;17.43;12.20;;;5.20;43.50;;;;;;5044176;28;20272;-47
2022/03/04 05:16:41;;;;;;;27.63;14.47;;;5.00;43.80;;;;;;5046062;28;20197;-44
2022/03/04 05:19:07;;;;;;;18.50;14.90;;;5.00;43.80;;;;;;5042673;28;20192;-46
2022/03/04 05:21:33;;;;;;;17.70;12.90;;;5.00;43.70;;;;;;5044871;28;20298;-47
2022/03/04 05:24:02;;;;;;;18.80;12.60;;;5.00;43.60;;;;;;5044269;28;20197;-48
2022/03/04 05:26:30;;;;;;;16.10;12.00;;;5.00;43.60;;;;;;5043802;28;20208;-50
2022/03/04 05:28:57;;;;;;;18.90;13.07;;;5.00;43.60;;;;;;5034026;28;20434;-51
2022/03/04 05:31:22;;;;;;;19.43;12.43;;;5.10;43.80;;;;;;5035567;28;20443;-44
2022/03/04 05:33:49;;;;;;;16.17;11.97;;;5.00;43.90;;;;;;5040521;28;20529;-45
2022/03/04 05:36:14;;;;;;;17.20;12.97;;;5.00;43.80;;;;;;5042425;28;20197;-48
2022/03/04 05:38:40;;;;;;;19.17;13.03;;;5.00;43.80;;;;;;5041785;28;20953;-44
2022/03/04 05:41:06;;;;;;;18.40;12.10;;;4.90;43.80;;;;;;5042292;28;20323;-44
2022/03/04 05:43:32;;;;;;;18.97;13.27;;;4.90;43.80;;;;;;5046743;28;20505;-46
2022/03/04 05:45:57;;;;;;;15.23;12.10;;;4.90;43.90;;;;;;5048132;28;20595;-46
2022/03/04 05:48:23;;;;;;;16.20;12.13;;;4.90;44.00;;;;;;5048793;28;20686;-46
2022/03/04 05:50:48;;;;;;;26.30;12.20;;;4.90;44.10;;;;;;5049431;28;20657;-46
2022/03/04 05:53:14;;;;;;;16.03;12.80;;;4.90;44.10;;;;;;5037644;28;20197;-44
2022/03/04 05:55:40;;;;;;;17.63;12.50;;;4.90;44.00;;;;;;5043332;28;20201;-45
2022/03/04 05:58:06;;;;;;;19.53;11.80;;;4.90;44.00;;;;;;5039958;28;20227;-48
2022/03/04 06:00:32;;;;;;;16.53;12.10;;;4.90;44.20;;;;;;5047020;28;20471;-49
2022/03/04 06:02:57;;;;;;;20.10;11.97;;;4.90;44.10;;;;;;5045903;28;20702;-45
2022/03/04 06:05:24;;;;;;;15.30;11.10;;;4.90;44.10;;;;;;5045825;28;20448;-44
2022/03/04 06:07:50;;;;;;;17.40;12.83;;;4.80;43.90;;;;;;5044528;28;20270;-46
2022/03/04 06:10:16;;;;;;;16.77;12.00;;;4.80;43.90;;;;;;5044170;28;20448;-45
2022/03/04 06:12:42;;;;;;;15.83;10.90;;;4.80;44.00;;;;;;5047659;28;20797;-44
2022/03/04 06:15:08;;;;;;;22.30;11.37;;;4.80;44.10;;;;;;5038501;28;20477;-45
2022/03/04 06:17:34;;;;;;;21.43;13.30;;;4.70;44.20;;;;;;5042823;28;20818;-44
2022/03/04 06:20:00;;;;;;;21.37;14.00;;;4.70;44.20;;;;;;5040516;28;20445;-46
2022/03/04 06:22:25;;;;;;;19.20;11.50;;;4.70;44.40;;;;;;5046488;28;20224;-46
2022/03/04 06:24:51;;;;;;;21.90;13.47;;;4.80;46.40;;;;;;5043633;28;20332;-46
2022/03/04 06:27:16;;;;;;;17.93;12.60;;;5.10;46.50;;;;;;5045107;28;20185;-44
2022/03/04 06:29:42;;;;;;;18.80;12.80;;;5.50;44.80;;;;;;5041033;28;20235;-45
2022/03/04 06:32:09;;;;;;;19.13;13.30;;;5.80;44.40;;;;;;5046332;28;20192;-44
2022/03/04 06:34:35;;;;;;;16.80;12.00;;;6.00;43.90;;;;;;5047328;28;20189;-45
2022/03/04 06:37:01;;;;;;;18.63;12.30;;;6.20;43.00;;;;;;5040004;28;20529;-44
2022/03/04 06:39:26;;;;;;;18.70;12.17;;;6.30;43.00;;;;;;5045513;28;20879;-45
2022/03/04 06:41:53;;;;;;;21.10;12.80;;;6.60;43.70;;;;;;5045718;28;20578;-45
2022/03/04 06:44:19;;;;;;;19.10;13.30;;;6.80;42.80;;;;;;5043500;28;20229;-45
2022/03/04 06:46:44;;;;;;;43.27;23.60;;;7.00;42.00;;;;;;5047130;28;20439;-46
2022/03/04 06:49:11;;;;;;;32.83;20.37;;;7.20;41.40;;;;;;5052317;28;20246;-46
2022/03/04 06:51:37;;;;;;;24.60;16.43;;;7.40;41.50;;;;;;5047117;28;20327;-51
2022/03/04 06:54:03;;;;;;;19.07;13.20;;;7.60;41.30;;;;;;5047680;28;20439;-47
2022/03/04 06:56:29;;;;;;;19.63;13.97;;;7.90;41.00;;;;;;5043316;28;20427;-45
2022/03/04 06:58:54;;;;;;;17.53;12.93;;;8.10;40.20;;;;;;5035044;28;20201;-48
2022/03/04 07:01:21;;;;;;;19.23;13.23;;;8.30;39.60;;;;;;5054901;28;20235;-46
2022/03/04 07:03:47;;;;;;;18.57;13.53;;;8.50;39.20;;;;;;5042566;28;20192;-46
2022/03/04 07:06:13;;;;;;;26.13;14.70;;;8.60;38.90;;;;;;5049011;28;20442;-48
2022/03/04 07:08:38;;;;;;;19.90;14.17;;;8.90;38.80;;;;;;5039308;28;20815;-46
2022/03/04 07:11:04;;;;;;;19.30;13.50;;;9.00;38.10;;;;;;5054421;28;20701;-45
2022/03/04 07:13:31;;;;;;;20.00;15.07;;;9.10;37.90;;;;;;5044375;28;20197;-46
2022/03/04 07:15:56;;;;;;;21.10;13.63;;;9.30;38.00;;;;;;5042156;28;20271;-47
2022/03/04 07:18:23;;;;;;;17.07;12.47;;;9.50;37.60;;;;;;5047302;28;20838;-46
2022/03/04 07:20:49;;;;;;;19.60;14.30;;;9.60;37.20;;;;;;5051327;28;20197;-44
2022/03/04 07:23:16;;;;;;;18.37;14.60;;;9.80;37.30;;;;;;5044300;28;20519;-51
2022/03/04 07:25:41;;;;;;;18.33;14.50;;;9.90;37.00;;;;;;5048257;28;20431;-45
2022/03/04 07:28:08;;;;;;;21.87;16.60;;;10.20;35.80;;;;;;5043981;28;20488;-45
2022/03/04 07:30:34;;;;;;;23.60;16.07;;;10.30;35.40;;;;;;5051960;28;20447;-48
2022/03/04 07:33:02;;;;;;;21.53;15.20;;;10.50;35.80;;;;;;5049425;28;20435;-45
2022/03/04 07:35:28;;;;;;;21.00;16.10;;;10.60;35.00;;;;;;5041031;28;20527;-45
2022/03/04 07:37:53;;;;;;;21.13;15.73;;;10.80;35.00;;;;;;5043075;28;20442;-46
2022/03/04 07:40:19;;;;;;;25.33;16.40;;;10.90;34.80;;;;;;5045883;28;20415;-44
2022/03/04 07:42:45;;;;;;;22.73;15.83;;;11.10;34.70;;;;;;5042926;28;20224;-46
2022/03/04 07:45:11;;;;;;;21.93;14.43;;;11.20;34.50;;;;;;5046312;28;20726;-46
2022/03/04 07:47:39;;;;;;;21.37;16.67;;;11.40;34.10;;;;;;5052540;28;20181;-47
2022/03/04 07:50:07;;;;;;;20.33;15.63;;;11.40;34.00;;;;;;5049664;28;20427;-45
2022/03/04 07:52:35;;;;;;;20.83;15.40;;;11.60;33.90;;;;;;5049056;28;20859;-46
2022/03/04 07:55:03;;;;;;;20.77;13.83;;;11.60;33.60;;;;;;5038065;28;20969;-47
2022/03/04 07:57:29;;;;;;;21.57;16.83;;;11.10;33.40;;;;;;5039398;28;20447;-47
2022/03/04 07:59:54;;;;;;;21.90;16.40;;;11.10;34.10;;;;;;5039622;28;20435;-46
2022/03/04 08:02:20;;;;;;;21.47;16.40;;;10.90;34.30;;;;;;5049462;28;20225;-47
2022/03/04 08:04:46;;;;;;;25.07;16.37;;;11.00;34.90;;;;;;5045169;28;20227;-47
2022/03/04 08:07:13;;;;;;;24.33;15.20;;;11.10;34.80;;;;;;5046581;28;21494;-48
2022/03/04 08:09:39;;;;;;;22.20;17.53;;;11.30;34.60;;;;;;5043620;28;20431;-47
2022/03/04 08:12:06;;;;;;;21.10;15.67;;;11.20;34.50;;;;;;5048687;28;20450;-48
2022/03/04 08:14:31;;;;;;;23.47;16.03;;;11.30;35.00;;;;;;5036612;28;20509;-45
2022/03/04 08:16:57;;;;;;;21.73;16.53;;;11.00;34.50;;;;;;5040946;28;20444;-45
2022/03/04 08:19:22;;;;;;;27.10;17.27;;;11.00;35.00;;;;;;5043020;28;20196;-45
2022/03/04 08:21:48;;;;;;;26.50;15.87;;;11.00;35.00;;;;;;5043329;28;20228;-49
2022/03/04 08:24:14;;;;;;;22.37;16.90;;;11.10;34.90;;;;;;5046583;28;20215;-45
2022/03/04 08:26:41;;;;;;;25.00;17.10;;;11.10;34.80;;;;;;5032790;28;20280;-45
2022/03/04 08:29:10;;;;;;;21.07;16.37;;;11.10;34.90;;;;;;5043216;28;20208;-47
2022/03/04 08:31:37;;;;;;;25.23;17.23;;;11.20;34.70;;;;;;5048829;28;20435;-45
2022/03/04 08:34:03;;;;;;;21.50;16.60;;;11.20;34.80;;;;;;5038082;28;20947;-46
2022/03/04 08:36:29;;;;;;;23.53;17.27;;;11.10;34.70;;;;;;5049448;28;20431;-45
2022/03/04 08:38:54;;;;;;;24.53;17.77;;;11.20;34.70;;;;;;5043807;28;20997;-45
2022/03/04 08:41:20;;;;;;;21.10;15.90;;;11.20;34.30;;;;;;5045150;28;20550;-45
2022/03/04 08:43:47;;;;;;;23.20;16.70;;;11.10;34.00;;;;;;5046152;28;20684;-45
2022/03/04 08:46:14;;;;;;;22.13;16.57;;;11.10;34.40;;;;;;5036303;28;20194;-47
2022/03/04 08:48:42;;;;;;;23.53;17.30;;;11.00;34.60;;;;;;5032728;28;20440;-44
2022/03/04 08:51:08;;;;;;;25.90;17.80;;;11.00;34.30;;;;;;5035148;28;20928;-46
2022/03/04 08:53:34;;;;;;;25.50;16.90;;;11.20;34.10;;;;;;5047840;28;20435;-44
2022/03/04 08:56:00;;;;;;;23.17;17.30;;;11.00;33.60;;;;;;5046025;28;20430;-47
2022/03/04 08:58:25;;;;;;;25.97;17.40;;;10.90;34.10;;;;;;5040729;28;20204;-45
2022/03/04 09:00:51;;;;;;;23.20;17.70;;;10.50;34.10;;;;;;5047846;28;20199;-46
2022/03/04 09:03:16;;;;;;;28.87;16.03;;;10.30;34.50;;;;;;5038979;28;20788;-45
2022/03/04 09:05:42;;;;;;;23.80;17.43;;;10.10;34.30;;;;;;5042624;28;20271;-48
2022/03/04 09:08:08;;;;;;;24.00;16.33;;;10.00;34.60;;;;;;5038267;28;20287;-47
2022/03/04 09:10:33;;;;;;;23.30;16.70;;;10.20;35.20;;;;;;5035413;28;20231;-45
2022/03/04 09:12:59;;;;;;;26.60;16.30;;;10.40;33.90;;;;;;5036626;28;20551;-45
2022/03/04 09:15:25;;;;;;;23.90;16.27;;;10.40;33.70;;;;;;5043422;28;20561;-45
2022/03/04 09:17:51;;;;;;;22.40;17.47;;;10.50;33.80;;;;;;5039198;28;20205;-48
2022/03/04 09:20:19;;;;;;;22.13;16.50;;;10.70;33.80;;;;;;5042337;28;20439;-48
2022/03/04 09:22:45;;;;;;;21.77;17.00;;;10.80;33.20;;;;;;5037667;28;20228;-44
2022/03/04 09:25:11;;;;;;;23.60;16.13;;;11.20;32.60;;;;;;5036917;28;20443;-49
2022/03/04 09:27:37;;;;;;;21.87;15.53;;;11.40;32.10;;;;;;5041051;28;20813;-46
2022/03/04 09:30:04;;;;;;;20.73;14.97;;;11.40;32.10;;;;;;5042899;28;20245;-46
2022/03/04 09:32:29;;;;;;;25.53;17.17;;;11.50;32.40;;;;;;5042510;28;20212;-47
2022/03/04 09:34:55;;;;;;;23.53;17.73;;;11.60;31.90;;;;;;5040102;28;20889;-45
2022/03/04 09:37:21;;;;;;;23.67;16.73;;;11.80;31.90;;;;;;5035934;28;20204;-45
2022/03/04 09:39:46;;;;;;;21.60;15.77;;;11.80;30.10;;;;;;5043556;28;20193;-44
2022/03/04 09:42:12;;;;;;;23.23;17.37;;;11.70;30.20;;;;;;5045088;28;20251;-45
2022/03/04 09:44:40;;;;;;;24.87;15.97;;;11.90;30.70;;;;;;5047118;28;20275;-44
2022/03/04 09:47:05;;;;;;;20.10;16.30;;;12.00;30.10;;;;;;5035566;28;20284;-46
2022/03/04 09:49:34;;;;;;;24.27;17.60;;;11.90;30.00;;;;;;5044247;28;20518;-47
2022/03/04 09:52:00;;;;;;;25.07;16.00;;;12.10;30.20;;;;;;5040191;28;20472;-46
2022/03/04 09:54:29;;;;;;;25.43;16.20;;;12.40;30.00;;;;;;5037757;28;20471;-45
2022/03/04 09:56:56;;;;;;;21.77;15.97;;;12.50;28.80;;;;;;5036211;28;20232;-48
2022/03/04 09:59:22;;;;;;;20.40;15.10;;;12.40;28.50;;;;;;5045692;28;20423;-47
2022/03/04 10:01:48;;;;;;;20.80;16.03;;;12.70;28.50;;;;;;5044258;28;20525;-47
2022/03/04 10:04:13;;;;;;;20.90;15.60;;;12.80;28.30;;;;;;5046050;28;20220;-46
2022/03/04 10:06:44;;;;;;;20.87;17.23;;;12.90;28.20;;;;;;5041112;28;20192;-45
2022/03/04 10:09:10;;;;;;;20.67;16.00;;;13.10;28.40;;;;;;5038218;28;20201;-47
2022/03/04 10:11:38;;;;;;;21.23;16.40;;;13.50;28.30;;;;;;5047142;28;20504;-46
2022/03/04 10:14:08;;;;;;;20.53;15.67;;;13.40;27.50;;;;;;5049422;28;20195;-46
2022/03/04 10:16:42;;;;;;;21.70;15.20;;;12.40;27.70;;;;;;5041919;28;20467;-51
2022/03/04 10:19:16;;;;;;;20.47;15.77;;;12.10;28.40;;;;;;5040027;28;20430;-45
2022/03/04 10:21:53;;;;;;;22.47;16.83;;;12.20;27.90;;;;;;5049833;28;20482;-45
2022/03/04 10:24:29;;;;;;;20.77;15.73;;;12.50;28.00;;;;;;5048864;28;20439;-45
2022/03/04 10:27:09;;;;;;;21.70;15.70;;;12.70;27.40;;;;;;5049989;28;21051;-46
2022/03/04 10:29:40;;;;;;;25.43;16.10;;;13.20;27.50;;;;;;5048140;28;20446;-46
2022/03/04 10:32:14;;;;;;;21.07;15.03;;;13.60;27.00;;;;;;5037141;28;20424;-49
2022/03/04 10:34:43;;;;;;;20.20;15.07;;;13.80;27.10;;;;;;5032189;28;20801;-45
2022/03/04 10:37:09;;;;;;;21.60;15.50;;;13.60;26.00;;;;;;5033380;28;20435;-47
2022/03/04 10:39:35;;;;;;;18.47;14.80;;;13.40;25.50;;;;;;5021078;28;20464;-49
2022/03/04 10:42:00;;;;;;;18.00;14.47;;;13.40;25.60;;;;;;5052664;28;20235;-47
2022/03/04 10:44:27;;;;;;;20.77;14.20;;;13.40;24.90;;;;;;5042761;28;20237;-50
2022/03/04 10:46:57;;;;;;;18.07;13.60;;;13.00;24.50;;;;;;5033269;28;20196;-45
2022/03/04 10:49:24;;;;;;;21.93;14.00;;;12.80;24.70;;;;;;5032662;28;20452;-48
2022/03/04 10:51:50;;;;;;;20.67;14.63;;;12.70;24.90;;;;;;5049402;28;20443;-49
2022/03/04 10:54:19;;;;;;;19.00;13.90;;;13.00;25.40;;;;;;5032176;28;20511;-48
2022/03/04 10:56:54;;;;;;;19.50;14.33;;;13.20;25.50;;;;;;5032983;28;20668;-45
2022/03/04 10:59:20;;;;;;;17.47;14.27;;;13.20;24.80;;;;;;5032551;28;21158;-45
2022/03/04 11:01:50;;;;;;;15.80;12.47;;;13.20;24.90;;;;;;5042829;28;20491;-47
2022/03/04 11:04:19;;;;;;;18.90;13.70;;;12.70;24.10;;;;;;5032074;28;20782;-44
2022/03/04 11:06:46;;;;;;;17.90;13.47;;;12.70;24.80;;;;;;5032802;28;20453;-47
2022/03/04 11:09:16;;;;;;;16.03;12.40;;;13.20;24.80;;;;;;5032640;28;20420;-46
2022/03/04 11:11:43;;;;;;;17.20;13.50;;;13.80;24.90;;;;;;5034474;28;20443;-49
2022/03/04 11:14:12;;;;;;;14.90;12.60;;;13.50;23.70;;;;;;5043558;28;20430;-46
2022/03/04 11:16:39;;;;;;;19.00;14.50;;;13.80;24.60;;;;;;5033411;28;20582;-45
2022/03/04 11:19:06;;;;;;;19.40;13.70;;;13.90;24.90;;;;;;5032088;28;20432;-45
2022/03/04 11:21:32;;;;;;;18.73;12.57;;;14.30;25.10;;;;;;5033232;28;20459;-45
2022/03/04 11:23:58;;;;;;;16.60;12.43;;;14.40;24.60;;;;;;5039390;28;20435;-46
2022/03/04 11:26:27;;;;;;;21.43;14.10;;;14.80;24.40;;;;;;5032291;28;20424;-46
2022/03/04 11:28:54;;;;;;;17.40;12.10;;;15.30;24.20;;;;;;5032216;28;20223;-47
2022/03/04 11:31:25;;;;;;;16.83;12.37;;;15.50;23.20;;;;;;5032352;28;20496;-45
2022/03/04 11:34:00;;;;;;;17.73;13.80;;;15.30;22.70;;;;;;5044956;28;20454;-45
2022/03/04 11:36:34;;;;;;;20.73;13.00;;;15.00;23.10;;;;;;5033755;28;20512;-45
2022/03/04 11:39:14;;;;;;;17.73;13.90;;;15.30;23.90;;;;;;5030110;28;20536;-46
2022/03/04 11:42:06;;;;;;;17.10;14.07;;;15.50;23.60;;;;;;5043200;28;20470;-48
2022/03/04 11:44:33;;;;;;;15.30;12.50;;;15.80;23.30;;;;;;5036401;28;21024;-50
2022/03/04 11:47:04;;;;;;;17.27;13.60;;;15.80;22.90;;;;;;5045785;28;20443;-47
2022/03/04 11:49:38;;;;;;;17.60;13.40;;;15.90;22.80;;;;;;5043852;28;20431;-50
2022/03/04 11:52:27;;;;;;;18.93;13.53;;;16.20;23.10;;;;;;5037443;28;20439;-47
2022/03/04 11:54:58;;;;;;;21.27;14.37;;;16.50;23.20;;;;;;5040053;28;20577;-45
2022/03/04 11:57:29;;;;;;;15.80;12.40;;;16.50;23.20;;;;;;5045621;28;20439;-47
2022/03/04 12:00:11;;;;;;;13.67;11.80;;;16.50;22.10;;;;;;5041586;28;20455;-46
2022/03/04 12:02:43;;;;;;;15.80;12.80;;;16.40;22.30;;;;;;5036992;28;20479;-45
2022/03/04 12:05:19;;;;;;;16.53;13.83;;;16.70;21.80;;;;;;5040592;28;20578;-49
2022/03/04 12:08:06;;;;;;;20.23;13.70;;;16.60;22.40;;;;;;5045765;28;20795;-45
2022/03/04 12:10:37;;;;;;;17.20;13.87;;;17.00;22.40;;;;;;5042093;28;20456;-47
2022/03/04 12:13:07;;;;;;;15.60;13.10;;;17.20;21.90;;;;;;5043429;28;20526;-45
2022/03/04 12:15:40;;;;;;;17.93;13.03;;;17.30;20.90;;;;;;5041176;28;20546;-45
2022/03/04 12:18:06;;;;;;;17.40;14.30;;;17.10;21.10;;;;;;5044302;28;20448;-48
2022/03/04 12:20:41;;;;;;;17.53;14.63;;;17.20;21.30;;;;;;5041261;28;20931;-45
2022/03/04 12:23:14;;;;;;;17.90;14.53;;;17.00;21.60;;;;;;5046005;28;20487;-46
2022/03/04 12:25:55;;;;;;;17.70;14.43;;;17.20;22.10;;;;;;5046436;28;20439;-46
2022/03/04 12:28:48;;;;;;;15.77;13.57;;;17.20;22.20;;;;;;5037154;28;20450;-47
2022/03/04 12:31:14;;;;;;;15.73;12.50;;;16.10;23.90;;;;;;5044516;28;20444;-45